Finley, Washington
Current Conditions -  °F | °C
As of 1:53 PM on Saturday 25 Oct 2014 (Local Time) from KPSC Reporting Station
Broken Clouds Broken Clouds  
Wind Chill: 56°   Ceiling: 12000
Heat Index: 56°   Visibility: 10mi
Dew Point: 49°   Wind: 0mph
Humidity: 77%   Direction: NA
Pressure: 29.55"   Gusts: NA
Location:  46.2117°N, 119.173°W
Report Text: KPSC 252053Z 00000KT 10SM BKN120 13/09 A2955 RMK AO2 SLP007 T01330094 58021
Loading
Personal Weather Stations






























Interactive Weather Map
Tropical Storm Tracking
New forecast layout! Learn more

10-Day Weather Forecast

Advertisements
Track Severe Weather on mobile